Time;durP1;ratioP1;P1;durP2;ratioP2;P2;SDS_P1;SDS_P2;PMS_P1;PMS_P2;Temp;Humidity;BMP_temperature;BMP_pressure;BME280_temperature;BME280_humidity;BME280_pressure;Samples;Min_cycle;Max_cycle;Signal;HPM_P1;HPM_P2
2021/07/22 00:02:13;;;;;;;5.03;3.25;;;19.80;71.90;;;;;;5076275;28;20533;-79
2021/07/22 00:04:38;;;;;;;6.45;3.70;;;19.70;71.80;;;;;;5075813;28;20457;-76
2021/07/22 00:07:04;;;;;;;5.93;4.00;;;19.70;71.90;;;;;;5077382;28;20048;-76
2021/07/22 00:09:29;;;;;;;6.13;3.80;;;19.60;72.00;;;;;;5092622;28;20032;-76
2021/07/22 00:11:55;;;;;;;5.20;3.92;;;19.60;72.50;;;;;;5092813;28;20020;-76
2021/07/22 00:14:21;;;;;;;5.53;3.58;;;19.50;72.70;;;;;;5091915;28;20022;-77
2021/07/22 00:16:47;;;;;;;5.57;3.25;;;19.50;73.20;;;;;;5092548;28;20358;-76
2021/07/22 00:19:12;;;;;;;6.38;3.53;;;19.50;73.30;;;;;;5093587;28;20039;-78
2021/07/22 00:21:38;;;;;;;9.02;4.25;;;19.50;73.50;;;;;;5092528;28;20031;-76
2021/07/22 00:24:04;;;;;;;7.50;3.85;;;19.40;74.50;;;;;;5092818;28;20024;-76
2021/07/22 00:26:30;;;;;;;6.30;3.67;;;19.40;73.90;;;;;;5093421;28;20055;-76
2021/07/22 00:28:59;;;;;;;5.90;3.80;;;19.40;73.50;;;;;;5091983;28;20127;-76
2021/07/22 00:31:24;;;;;;;8.20;3.63;;;19.40;73.70;;;;;;5091144;28;20385;-76
2021/07/22 00:33:50;;;;;;;4.85;3.72;;;19.40;73.70;;;;;;5094172;28;20024;-77
2021/07/22 00:36:16;;;;;;;6.05;3.63;;;19.40;73.70;;;;;;5093607;28;20085;-78
2021/07/22 00:38:42;;;;;;;6.32;3.75;;;19.40;73.70;;;;;;5092483;28;20525;-76
2021/07/22 00:41:11;;;;;;;6.53;3.45;;;19.40;74.00;;;;;;5093812;28;20024;-76
2021/07/22 00:43:39;;;;;;;6.18;3.63;;;19.50;74.10;;;;;;5092009;28;20023;-76
2021/07/22 00:46:05;;;;;;;7.70;3.97;;;19.50;74.30;;;;;;5092601;28;20031;-77
2021/07/22 00:48:31;;;;;;;7.93;3.90;;;19.60;74.30;;;;;;5091938;28;20047;-76
2021/07/22 00:50:57;;;;;;;8.73;3.80;;;19.60;74.20;;;;;;5093480;28;20024;-77
2021/07/22 00:53:22;;;;;;;7.57;3.85;;;19.60;74.50;;;;;;5091444;28;20030;-77
2021/07/22 00:55:48;;;;;;;6.10;3.70;;;19.60;74.60;;;;;;5092332;28;20028;-77
2021/07/22 00:58:13;;;;;;;5.88;3.75;;;19.60;74.70;;;;;;5091834;28;20020;-77
2021/07/22 01:00:39;;;;;;;5.45;3.60;;;19.60;75.00;;;;;;5092818;28;20028;-77
2021/07/22 01:03:05;;;;;;;5.53;4.00;;;19.60;75.00;;;;;;5092177;28;20031;-76
2021/07/22 01:05:31;;;;;;;6.32;4.15;;;19.50;74.50;;;;;;5091625;28;20510;-77
2021/07/22 01:07:56;;;;;;;5.80;3.83;;;19.40;74.80;;;;;;5092043;28;20055;-77
2021/07/22 01:10:22;;;;;;;6.82;4.15;;;19.40;74.80;;;;;;5092800;28;20039;-77
2021/07/22 01:12:48;;;;;;;7.60;3.90;;;19.30;74.90;;;;;;5091700;28;20107;-76
2021/07/22 01:15:13;;;;;;;6.60;4.28;;;19.20;75.70;;;;;;5091233;28;20143;-77
2021/07/22 01:17:49;;;;;;;8.25;4.53;;;19.30;75.80;;;;;;5091427;28;20024;-77
2021/07/22 01:20:14;;;;;;;7.22;4.35;;;19.30;75.90;;;;;;5093702;28;20027;-77
2021/07/22 01:22:40;;;;;;;5.47;3.75;;;19.30;76.30;;;;;;5091678;28;20028;-77
2021/07/22 01:25:07;;;;;;;5.85;4.38;;;19.30;76.50;;;;;;5091836;28;20569;-76
2021/07/22 01:27:32;;;;;;;7.10;3.83;;;19.30;76.70;;;;;;5091542;28;20024;-76
2021/07/22 01:29:58;;;;;;;5.50;4.07;;;19.30;76.80;;;;;;5092745;28;20115;-76
2021/07/22 01:32:23;;;;;;;5.22;3.70;;;19.20;76.80;;;;;;5092269;28;20028;-77
2021/07/22 01:34:49;;;;;;;5.00;3.88;;;19.20;76.90;;;;;;5091729;28;20036;-76
2021/07/22 01:37:15;;;;;;;6.07;3.70;;;19.20;77.10;;;;;;5092740;28;20038;-77
2021/07/22 01:39:40;;;;;;;7.32;4.47;;;19.10;76.80;;;;;;5091035;28;20038;-77
2021/07/22 01:42:07;;;;;;;9.32;4.10;;;19.10;77.30;;;;;;5091531;28;20032;-77
2021/07/22 01:44:32;;;;;;;5.07;3.80;;;19.10;77.50;;;;;;5090743;28;20020;-77
2021/07/22 01:46:58;;;;;;;7.35;4.00;;;19.00;77.20;;;;;;5092591;28;20418;-76
2021/07/22 01:49:24;;;;;;;6.93;4.35;;;19.00;77.10;;;;;;5089977;28;20124;-77
2021/07/22 01:51:50;;;;;;;6.90;4.05;;;18.90;76.90;;;;;;5090927;28;20020;-76
2021/07/22 01:54:15;;;;;;;6.78;4.30;;;18.90;77.20;;;;;;5091301;28;20021;-77
2021/07/22 01:56:41;;;;;;;5.75;4.00;;;18.90;77.60;;;;;;5091583;28;20036;-77
2021/07/22 01:59:07;;;;;;;7.18;4.22;;;18.90;77.70;;;;;;5091317;28;20465;-76
2021/07/22 02:01:32;;;;;;;5.32;3.97;;;18.80;77.50;;;;;;5090485;28;20389;-77
2021/07/22 02:03:58;;;;;;;7.70;4.13;;;18.80;77.90;;;;;;5091093;28;20037;-77
2021/07/22 02:06:24;;;;;;;7.55;4.05;;;18.80;77.60;;;;;;5091046;28;20078;-78
2021/07/22 02:08:49;;;;;;;6.78;3.88;;;18.80;77.90;;;;;;5091128;28;20086;-77
2021/07/22 02:11:15;;;;;;;7.13;4.05;;;18.70;78.00;;;;;;5092863;28;20028;-76
2021/07/22 02:13:40;;;;;;;6.45;4.10;;;18.70;78.00;;;;;;5091848;28;20107;-76
2021/07/22 02:16:07;;;;;;;7.57;3.92;;;18.70;78.00;;;;;;5092357;28;20020;-76
2021/07/22 02:18:33;;;;;;;5.80;4.15;;;18.70;78.30;;;;;;5092175;28;20043;-77
2021/07/22 02:20:58;;;;;;;10.13;4.75;;;18.70;78.40;;;;;;5091336;28;20024;-77
2021/07/22 02:23:24;;;;;;;6.20;4.15;;;18.60;78.30;;;;;;5090931;28;20030;-79
2021/07/22 02:25:49;;;;;;;4.90;3.83;;;18.60;78.40;;;;;;5091220;28;20028;-76
2021/07/22 02:28:15;;;;;;;7.00;4.43;;;18.60;78.40;;;;;;5092633;28;20024;-76
2021/07/22 02:30:40;;;;;;;5.90;4.07;;;18.50;78.80;;;;;;5093958;28;20594;-76
2021/07/22 02:33:07;;;;;;;7.10;4.82;;;18.50;78.90;;;;;;5095044;28;20032;-77
2021/07/22 02:35:33;;;;;;;6.30;4.22;;;18.50;78.90;;;;;;5094492;28;20028;-77
2021/07/22 02:37:59;;;;;;;8.18;4.45;;;18.50;79.00;;;;;;5094726;28;20081;-76
2021/07/22 02:40:24;;;;;;;5.78;4.35;;;18.40;79.50;;;;;;5094203;28;20469;-78
2021/07/22 02:42:50;;;;;;;8.38;4.38;;;18.40;80.20;;;;;;5095644;28;20050;-76
2021/07/22 02:45:15;;;;;;;6.43;4.70;;;18.40;79.50;;;;;;5095893;28;20020;-76
2021/07/22 02:47:41;;;;;;;7.95;4.03;;;18.40;79.30;;;;;;5094215;28;20035;-75
2021/07/22 02:50:07;;;;;;;9.13;4.30;;;18.40;79.80;;;;;;5094433;28;20047;-76
2021/07/22 02:52:33;;;;;;;6.30;4.13;;;18.30;79.50;;;;;;5095329;28;20130;-77
2021/07/22 02:54:59;;;;;;;7.32;4.13;;;18.30;79.70;;;;;;5094463;28;20028;-77
2021/07/22 02:57:25;;;;;;;7.40;4.22;;;18.30;79.50;;;;;;5094163;28;20027;-79
2021/07/22 02:59:51;;;;;;;7.55;4.07;;;18.30;79.50;;;;;;5094629;28;20400;-77
2021/07/22 03:02:16;;;;;;;5.15;4.10;;;18.20;79.80;;;;;;5093830;28;20032;-76
2021/07/22 03:04:42;;;;;;;6.75;3.88;;;18.30;79.90;;;;;;5093484;28;20162;-77
2021/07/22 03:07:07;;;;;;;7.93;4.50;;;18.30;80.00;;;;;;5093505;28;20059;-76
2021/07/22 03:09:33;;;;;;;5.72;4.05;;;18.20;80.20;;;;;;5093141;28;20442;-76
2021/07/22 03:11:59;;;;;;;9.25;4.25;;;18.30;80.20;;;;;;5093980;28;20020;-76
2021/07/22 03:14:24;;;;;;;6.07;4.15;;;18.40;80.30;;;;;;5094860;28;20415;-79
2021/07/22 03:16:50;;;;;;;7.28;4.15;;;18.40;80.10;;;;;;5095054;28;20024;-75
2021/07/22 03:19:16;;;;;;;6.28;4.40;;;18.40;79.90;;;;;;5093556;28;20028;-76
2021/07/22 03:21:41;;;;;;;9.35;4.95;;;18.40;80.00;;;;;;5093464;28;20035;-76
2021/07/22 03:24:07;;;;;;;8.85;4.50;;;18.40;79.90;;;;;;5094281;28;20073;-77
2021/07/22 03:26:33;;;;;;;7.40;4.47;;;18.40;80.00;;;;;;5092976;28;20388;-77
2021/07/22 03:28:58;;;;;;;6.22;4.22;;;18.30;80.10;;;;;;5094528;28;20032;-76
2021/07/22 03:31:24;;;;;;;8.50;4.32;;;18.40;80.30;;;;;;5093858;28;20025;-81
2021/07/22 03:33:49;;;;;;;7.13;4.72;;;18.40;80.70;;;;;;5093009;28;20552;-77
2021/07/22 03:36:15;;;;;;;7.05;4.22;;;18.30;80.60;;;;;;5094812;28;20063;-76
2021/07/22 03:38:41;;;;;;;8.07;4.97;;;18.40;80.70;;;;;;5093248;28;20043;-77
2021/07/22 03:41:06;;;;;;;10.38;4.65;;;18.40;80.70;;;;;;5095086;28;20106;-76
2021/07/22 03:43:32;;;;;;;10.65;4.30;;;18.30;80.70;;;;;;5093063;28;20069;-77
2021/07/22 03:45:58;;;;;;;7.80;4.75;;;18.30;80.80;;;;;;5093580;28;20036;-77
2021/07/22 03:48:25;;;;;;;7.32;4.55;;;18.30;81.00;;;;;;5094599;28;20016;-77
2021/07/22 03:50:50;;;;;;;7.20;4.43;;;18.30;81.30;;;;;;5092568;28;20103;-76
2021/07/22 03:53:16;;;;;;;8.40;4.47;;;18.20;81.20;;;;;;5093073;28;20059;-76
2021/07/22 03:55:42;;;;;;;7.63;4.43;;;18.20;81.30;;;;;;5092339;28;20116;-76
2021/07/22 03:58:07;;;;;;;9.38;4.63;;;18.10;81.60;;;;;;5093238;28;20020;-76
2021/07/22 04:00:33;;;;;;;6.38;4.65;;;18.10;81.80;;;;;;5092144;28;20114;-77
2021/07/22 04:03:04;;;;;;;9.10;4.68;;;18.00;81.80;;;;;;5092686;28;20057;-76
2021/07/22 04:05:30;;;;;;;5.88;3.90;;;18.00;81.70;;;;;;5092577;28;20119;-77
2021/07/22 04:07:57;;;;;;;8.57;4.53;;;18.00;81.60;;;;;;5093956;28;20072;-77
2021/07/22 04:10:23;;;;;;;9.65;4.85;;;18.00;81.90;;;;;;5075685;28;20041;-77
2021/07/22 04:12:57;;;;;;;8.68;4.93;;;17.90;81.60;;;;;;5075859;28;20035;-76
2021/07/22 04:15:25;;;;;;;5.78;4.53;;;17.90;81.80;;;;;;5094202;28;20024;-76
2021/07/22 04:17:52;;;;;;;8.13;4.47;;;17.90;81.90;;;;;;5075638;28;20484;-77
2021/07/22 04:20:19;;;;;;;8.00;4.35;;;17.90;81.90;;;;;;5075872;28;20408;-76
2021/07/22 04:22:45;;;;;;;6.65;4.22;;;17.90;81.70;;;;;;5093587;28;20077;-76
2021/07/22 04:25:12;;;;;;;10.32;4.57;;;17.90;81.80;;;;;;5075870;28;20020;-76
2021/07/22 04:27:37;;;;;;;9.77;4.85;;;17.90;81.80;;;;;;5075437;28;20025;-76
2021/07/22 04:30:03;;;;;;;8.82;4.55;;;17.90;81.80;;;;;;5075537;28;20036;-76
2021/07/22 04:32:29;;;;;;;8.55;4.82;;;17.90;82.20;;;;;;5075532;28;20384;-79
2021/07/22 04:34:54;;;;;;;9.15;4.72;;;17.90;82.90;;;;;;5074820;28;20111;-76
2021/07/22 04:37:20;;;;;;;8.20;4.75;;;17.90;82.40;;;;;;5075618;28;20028;-76
2021/07/22 04:39:45;;;;;;;10.80;4.70;;;17.80;82.20;;;;;;5075299;28;20040;-77
2021/07/22 04:42:11;;;;;;;10.15;4.55;;;17.90;82.60;;;;;;5093390;28;20127;-77
2021/07/22 04:44:37;;;;;;;7.93;4.93;;;17.90;82.90;;;;;;5074746;28;20118;-77
2021/07/22 04:47:02;;;;;;;8.98;4.32;;;17.90;83.00;;;;;;5093670;28;20103;-76
2021/07/22 04:49:28;;;;;;;9.10;4.47;;;17.90;82.60;;;;;;5075609;28;20487;-80
2021/07/22 04:51:54;;;;;;;11.27;4.30;;;17.90;82.70;;;;;;5073971;28;20073;-77
2021/07/22 04:54:19;;;;;;;8.70;5.18;;;17.90;83.40;;;;;;5075326;28;20024;-76
2021/07/22 04:56:45;;;;;;;7.00;4.50;;;18.00;82.90;;;;;;5074936;28;20024;-76
2021/07/22 04:59:10;;;;;;;7.22;4.50;;;18.00;82.80;;;;;;5075266;28;20028;-76
2021/07/22 05:01:36;;;;;;;7.20;3.90;;;17.90;82.70;;;;;;5092428;28;20415;-77
2021/07/22 05:04:02;;;;;;;9.68;4.28;;;18.00;82.60;;;;;;5075072;28;20024;-77
2021/07/22 05:06:28;;;;;;;8.27;4.32;;;17.90;82.40;;;;;;5074521;28;20499;-77
2021/07/22 05:08:53;;;;;;;8.63;4.60;;;18.00;82.60;;;;;;5090949;28;20527;-76
2021/07/22 05:11:20;;;;;;;9.60;4.90;;;17.90;82.60;;;;;;5091875;28;20048;-76
2021/07/22 05:13:45;;;;;;;12.73;4.63;;;18.00;82.70;;;;;;5092794;28;20021;-76
2021/07/22 05:16:11;;;;;;;8.35;4.57;;;18.00;82.80;;;;;;5091578;28;20389;-76
2021/07/22 05:18:39;;;;;;;8.55;4.55;;;18.00;82.50;;;;;;5092453;28;20115;-77
2021/07/22 05:21:06;;;;;;;9.52;4.50;;;18.00;83.40;;;;;;5092031;28;20384;-76
2021/07/22 05:23:32;;;;;;;6.88;4.25;;;18.00;83.40;;;;;;5091803;28;20028;-78
2021/07/22 05:25:58;;;;;;;12.40;4.78;;;18.10;83.20;;;;;;5091431;28;20028;-76
2021/07/22 05:28:24;;;;;;;8.02;4.68;;;18.10;82.00;;;;;;5091820;28;20027;-76
2021/07/22 05:30:49;;;;;;;6.55;4.18;;;18.10;82.00;;;;;;5091283;28;20465;-76
2021/07/22 05:33:15;;;;;;;7.53;5.10;;;18.10;81.70;;;;;;5092987;28;20070;-76
2021/07/22 05:35:41;;;;;;;7.53;4.68;;;18.10;81.80;;;;;;5091396;28;20028;-77
2021/07/22 05:38:06;;;;;;;7.65;4.75;;;18.20;81.90;;;;;;5091764;28;20032;-76
2021/07/22 05:40:32;;;;;;;9.70;4.53;;;18.20;82.00;;;;;;5091679;28;20089;-80
2021/07/22 05:42:58;;;;;;;10.55;5.38;;;18.20;82.00;;;;;;5092608;28;20514;-76
2021/07/22 05:45:24;;;;;;;8.82;4.72;;;18.20;81.90;;;;;;5091221;28;20028;-76
2021/07/22 05:47:49;;;;;;;7.38;4.95;;;18.20;81.80;;;;;;5091312;28;20020;-76
2021/07/22 05:50:15;;;;;;;6.63;4.40;;;18.30;82.10;;;;;;5092616;28;20028;-76
2021/07/22 05:52:40;;;;;;;8.00;4.60;;;18.30;82.10;;;;;;5091251;28;20028;-77
2021/07/22 05:55:06;;;;;;;9.63;4.75;;;18.40;82.10;;;;;;5091262;28;20522;-76
2021/07/22 05:57:35;;;;;;;8.55;4.80;;;18.40;81.90;;;;;;5091105;28;20024;-77
2021/07/22 06:00:01;;;;;;;8.52;4.47;;;18.40;81.90;;;;;;5092227;28;20028;-77
2021/07/22 06:02:26;;;;;;;7.13;4.10;;;18.50;81.90;;;;;;5092908;28;20034;-77
2021/07/22 06:04:52;;;;;;;12.23;6.38;;;18.50;82.30;;;;;;5096333;28;20024;-77
2021/07/22 06:07:18;;;;;;;6.88;4.38;;;18.50;81.70;;;;;;5096095;28;20173;-76
2021/07/22 06:09:43;;;;;;;6.25;4.07;;;18.50;81.70;;;;;;5077915;28;20147;-77
2021/07/22 06:12:09;;;;;;;9.80;4.18;;;18.50;81.30;;;;;;5078447;28;20487;-76
2021/07/22 06:14:35;;;;;;;6.45;3.90;;;18.50;81.20;;;;;;5077837;28;20030;-80
2021/07/22 06:17:01;;;;;;;7.28;4.55;;;18.50;81.10;;;;;;5078305;28;20115;-77
2021/07/22 06:19:30;;;;;;;6.53;4.15;;;18.60;80.90;;;;;;5078251;28;20108;-76
2021/07/22 06:21:56;;;;;;;7.85;4.50;;;18.60;81.00;;;;;;5096181;28;20016;-77
2021/07/22 06:24:22;;;;;;;6.60;3.65;;;18.60;81.10;;;;;;5078419;28;20024;-77
2021/07/22 06:26:47;;;;;;;8.45;4.10;;;18.60;80.50;;;;;;5077934;28;20115;-77
2021/07/22 06:29:13;;;;;;;7.13;4.30;;;18.60;80.50;;;;;;5078379;28;20028;-77
2021/07/22 06:31:39;;;;;;;6.43;3.92;;;18.70;80.30;;;;;;5077881;28;20047;-78
2021/07/22 06:34:04;;;;;;;6.95;3.53;;;18.70;80.30;;;;;;5077996;28;20024;-77
2021/07/22 06:36:30;;;;;;;5.40;3.67;;;18.80;80.00;;;;;;5078132;28;20134;-77
2021/07/22 06:38:55;;;;;;;7.88;4.00;;;18.80;79.20;;;;;;5077431;28;20092;-77
2021/07/22 06:41:21;;;;;;;12.40;4.47;;;18.80;79.00;;;;;;5077715;28;20024;-77
2021/07/22 06:43:48;;;;;;;6.00;4.40;;;18.80;79.00;;;;;;5077161;28;20032;-76
2021/07/22 06:46:13;;;;;;;5.25;3.38;;;18.80;79.10;;;;;;5077760;28;20056;-77
2021/07/22 06:48:40;;;;;;;7.90;4.00;;;18.90;79.50;;;;;;5077224;28;20025;-78
2021/07/22 06:51:07;;;;;;;6.47;4.15;;;18.90;80.40;;;;;;5077511;28;20055;-76
2021/07/22 06:53:32;;;;;;;8.32;4.07;;;19.00;79.80;;;;;;5077772;28;20107;-76
2021/07/22 06:55:58;;;;;;;6.07;3.90;;;19.00;78.80;;;;;;5077048;28;20634;-76
2021/07/22 06:58:24;;;;;;;6.93;4.32;;;19.10;79.30;;;;;;5077698;28;20449;-76
2021/07/22 07:00:50;;;;;;;6.18;4.10;;;19.10;78.80;;;;;;5077135;28;20464;-77
2021/07/22 07:03:18;;;;;;;8.85;4.40;;;19.20;78.30;;;;;;5077373;28;20032;-77
2021/07/22 07:05:44;;;;;;;9.02;4.40;;;19.20;78.20;;;;;;5076981;28;20073;-77
2021/07/22 07:08:09;;;;;;;10.25;4.38;;;19.20;78.20;;;;;;5087691;28;20131;-76
2021/07/22 07:10:35;;;;;;;8.90;4.38;;;19.20;78.20;;;;;;5094287;28;20028;-77
2021/07/22 07:13:01;;;;;;;6.47;4.50;;;19.20;78.40;;;;;;5093538;28;20032;-77
2021/07/22 07:15:26;;;;;;;6.55;4.22;;;19.30;78.00;;;;;;5093685;28;20122;-76
2021/07/22 07:17:52;;;;;;;6.85;4.22;;;19.30;77.60;;;;;;5093643;28;20024;-76
2021/07/22 07:20:18;;;;;;;8.05;4.43;;;19.40;77.60;;;;;;5094998;28;20461;-76
2021/07/22 07:22:44;;;;;;;8.57;4.05;;;19.40;77.00;;;;;;5094812;28;20149;-77
2021/07/22 07:25:10;;;;;;;5.85;4.15;;;19.50;77.00;;;;;;5093441;28;20027;-76
2021/07/22 07:27:38;;;;;;;7.18;3.95;;;19.50;77.00;;;;;;5095215;28;20024;-76
2021/07/22 07:30:04;;;;;;;9.32;4.40;;;19.60;77.60;;;;;;5094725;28;20453;-77
2021/07/22 07:32:30;;;;;;;7.57;4.18;;;19.60;77.30;;;;;;5093854;28;20045;-76
2021/07/22 07:34:56;;;;;;;6.13;4.40;;;19.70;76.80;;;;;;5094499;28;20020;-76
2021/07/22 07:37:21;;;;;;;8.18;4.50;;;19.80;77.30;;;;;;5094738;28;20024;-77
2021/07/22 07:39:47;;;;;;;7.63;4.70;;;19.80;76.90;;;;;;5093199;28;20081;-77
2021/07/22 07:42:12;;;;;;;9.57;4.40;;;19.90;76.60;;;;;;5095037;28;20028;-76
2021/07/22 07:44:38;;;;;;;5.47;3.80;;;19.90;76.50;;;;;;5093600;28;20114;-78
2021/07/22 07:47:04;;;;;;;8.10;4.22;;;19.90;76.00;;;;;;5093336;28;20077;-77
2021/07/22 07:49:29;;;;;;;5.57;3.90;;;20.00;77.00;;;;;;5094590;28;20056;-77
2021/07/22 07:51:55;;;;;;;6.32;3.92;;;20.00;77.00;;;;;;5092898;28;20119;-77
2021/07/22 07:54:22;;;;;;;8.02;4.00;;;19.90;76.20;;;;;;5094632;28;20020;-75
2021/07/22 07:56:51;;;;;;;8.27;3.90;;;20.00;76.20;;;;;;5092895;28;20024;-77
2021/07/22 07:59:17;;;;;;;8.32;4.30;;;20.00;76.00;;;;;;5093249;28;20027;-77
2021/07/22 08:01:43;;;;;;;11.57;4.25;;;20.00;75.80;;;;;;5095469;28;20035;-77
2021/07/22 08:04:09;;;;;;;6.00;4.28;;;20.00;76.90;;;;;;5096100;28;20053;-76
2021/07/22 08:06:34;;;;;;;6.05;4.10;;;20.00;76.70;;;;;;5095927;28;20016;-77
2021/07/22 08:09:00;;;;;;;7.53;4.63;;;20.10;75.80;;;;;;5090155;28;20039;-77
2021/07/22 08:11:25;;;;;;;8.18;4.43;;;20.10;75.50;;;;;;5102460;28;20465;-79
2021/07/22 08:13:51;;;;;;;8.20;4.25;;;20.20;75.70;;;;;;5104912;28;20457;-85
2021/07/22 08:16:18;;;;;;;7.70;4.25;;;20.20;76.20;;;;;;5083429;28;20073;-81
2021/07/22 08:18:45;;;;;;;9.40;3.88;;;20.30;75.50;;;;;;5097093;28;20460;-76
2021/07/22 08:21:12;;;;;;;7.30;4.47;;;20.30;75.10;;;;;;5095475;28;20111;-74
2021/07/22 08:23:38;;;;;;;9.40;4.30;;;20.30;74.40;;;;;;5097714;28;20036;-75
2021/07/22 08:26:05;;;;;;;5.88;4.00;;;20.30;74.30;;;;;;5093163;28;20222;-76
2021/07/22 08:28:32;;;;;;;7.75;3.97;;;20.30;75.20;;;;;;5095083;28;20039;-75
2021/07/22 08:30:57;;;;;;;8.00;4.15;;;20.40;75.20;;;;;;5092993;28;20035;-74
2021/07/22 08:33:23;;;;;;;6.38;4.05;;;20.40;76.20;;;;;;5094159;28;20030;-74
2021/07/22 08:35:49;;;;;;;7.88;4.10;;;20.50;76.30;;;;;;5089405;28;20448;-73
2021/07/22 08:38:14;;;;;;;6.60;3.92;;;20.50;76.50;;;;;;5085317;28;20031;-73
2021/07/22 08:40:41;;;;;;;6.20;3.88;;;20.60;76.40;;;;;;5082700;28;20035;-73
2021/07/22 08:43:07;;;;;;;10.60;4.50;;;20.60;75.60;;;;;;5085466;28;20517;-73
2021/07/22 08:45:33;;;;;;;6.70;4.80;;;20.70;75.20;;;;;;5092366;28;20024;-73
2021/07/22 08:47:59;;;;;;;6.82;4.68;;;20.70;74.20;;;;;;5099649;28;20024;-73
2021/07/22 08:50:25;;;;;;;6.63;4.35;;;20.80;74.10;;;;;;5113140;28;20113;-73
2021/07/22 08:52:51;;;;;;;9.07;4.15;;;20.80;74.50;;;;;;5093783;28;20027;-74
2021/07/22 08:55:18;;;;;;;6.93;4.40;;;20.80;74.40;;;;;;5093875;28;20472;-75
2021/07/22 08:57:45;;;;;;;7.50;4.40;;;20.90;74.10;;;;;;5095513;28;20020;-77
2021/07/22 09:00:11;;;;;;;6.25;4.43;;;20.90;74.10;;;;;;5095214;28;20353;-75
2021/07/22 09:02:37;;;;;;;6.00;4.28;;;21.00;73.70;;;;;;5094640;28;20023;-74
2021/07/22 09:05:07;;;;;;;7.97;4.75;;;21.00;74.30;;;;;;5099883;28;20020;-74
2021/07/22 09:07:33;;;;;;;6.15;4.10;;;21.10;74.30;;;;;;5081792;28;20042;-75
2021/07/22 09:10:05;;;;;;;8.20;4.78;;;21.10;73.30;;;;;;5085192;28;20102;-76
2021/07/22 09:12:39;;;;;;;6.32;4.55;;;21.20;73.40;;;;;;5113148;28;20023;-74
2021/07/22 09:15:06;;;;;;;7.82;4.50;;;21.30;73.60;;;;;;5094514;28;20035;-75
2021/07/22 09:17:31;;;;;;;6.50;3.90;;;21.30;72.80;;;;;;5095303;28;20494;-74
2021/07/22 09:19:57;;;;;;;9.98;3.97;;;21.30;73.40;;;;;;5095287;28;20035;-74
2021/07/22 09:22:40;;;;;;;8.32;4.75;;;21.40;72.40;;;;;;5113671;28;20124;-74
2021/07/22 09:25:07;;;;;;;7.97;4.40;;;21.50;72.30;;;;;;5085645;28;20031;-73
2021/07/22 09:27:39;;;;;;;6.30;4.32;;;21.50;71.10;;;;;;5075206;28;20020;-74
2021/07/22 09:30:09;;;;;;;6.80;4.50;;;21.60;71.80;;;;;;5102510;28;20034;-72
2021/07/22 09:32:37;;;;;;;8.37;4.47;;;21.70;71.90;;;;;;5095012;28;20028;-73
2021/07/22 09:35:10;;;;;;;7.15;3.70;;;21.60;71.30;;;;;;5094153;28;20752;-73
2021/07/22 09:37:41;;;;;;;7.43;4.28;;;21.70;71.50;;;;;;5096648;28;20456;-72
2021/07/22 09:40:11;;;;;;;8.48;4.70;;;21.80;70.90;;;;;;5098514;28;20625;-74
2021/07/22 09:42:44;;;;;;;6.60;4.40;;;21.80;70.70;;;;;;5098974;28;20456;-73
2021/07/22 09:45:15;;;;;;;8.05;4.55;;;21.80;71.10;;;;;;5098985;28;20027;-73
2021/07/22 09:47:40;;;;;;;7.82;4.57;;;21.90;70.70;;;;;;5098267;28;20062;-74
2021/07/22 09:50:17;;;;;;;7.18;4.60;;;21.90;70.60;;;;;;5098212;28;20050;-73
2021/07/22 09:52:44;;;;;;;7.65;4.25;;;21.90;71.50;;;;;;5099448;28;20030;-73
2021/07/22 09:55:29;;;;;;;8.32;4.18;;;22.00;71.60;;;;;;5117570;28;20019;-74
2021/07/22 09:57:57;;;;;;;9.85;4.30;;;22.00;69.90;;;;;;5098595;28;20062;-75
2021/07/22 10:00:24;;;;;;;6.30;3.78;;;22.10;69.10;;;;;;5079125;28;20473;-74
2021/07/22 10:02:51;;;;;;;6.93;4.22;;;22.20;68.90;;;;;;5077980;28;20060;-80
2021/07/22 10:05:21;;;;;;;8.55;4.72;;;22.20;68.40;;;;;;5078288;28;20032;-74
2021/07/22 10:07:48;;;;;;;6.55;4.22;;;22.20;69.10;;;;;;5077542;28;20384;-78
2021/07/22 10:10:15;;;;;;;8.75;4.22;;;22.30;69.80;;;;;;5078272;28;20028;-75
2021/07/22 10:12:50;;;;;;;6.85;4.25;;;22.40;70.00;;;;;;5096639;28;20040;-74
2021/07/22 10:15:16;;;;;;;7.00;4.13;;;22.50;70.10;;;;;;5095668;28;20495;-74
2021/07/22 10:17:44;;;;;;;7.32;4.03;;;22.50;70.20;;;;;;5096325;28;20464;-73
2021/07/22 10:20:11;;;;;;;7.30;4.32;;;22.50;69.00;;;;;;5077662;28;20414;-74
2021/07/22 10:22:37;;;;;;;6.28;4.22;;;22.60;69.20;;;;;;5078970;28;20070;-73
2021/07/22 10:25:03;;;;;;;10.77;4.40;;;22.60;69.50;;;;;;5098020;28;20024;-73
2021/07/22 10:27:28;;;;;;;7.00;4.60;;;22.70;68.40;;;;;;5115939;28;20076;-74
2021/07/22 10:29:54;;;;;;;8.95;4.30;;;22.70;68.20;;;;;;5097141;28;20024;-75
2021/07/22 10:32:23;;;;;;;7.63;4.45;;;22.70;67.30;;;;;;5098047;28;20027;-74
2021/07/22 10:34:52;;;;;;;7.90;4.10;;;22.70;67.40;;;;;;5097771;28;20020;-80
2021/07/22 10:37:18;;;;;;;6.93;4.30;;;22.80;67.20;;;;;;5115786;28;20039;-75
2021/07/22 10:40:06;;;;;;;7.60;4.18;;;22.80;67.20;;;;;;5077820;28;20097;-75
2021/07/22 10:42:51;;;;;;;5.38;3.58;;;23.00;67.80;;;;;;5077357;28;20024;-75
2021/07/22 10:45:20;;;;;;;7.47;3.67;;;23.00;67.20;;;;;;5096549;28;20031;-71
2021/07/22 10:48:01;;;;;;;5.38;3.75;;;23.00;66.00;;;;;;5086252;28;20020;-75
2021/07/22 10:50:42;;;;;;;94.68;53.10;;;23.10;65.10;;;;;;5089980;28;20063;-75
2021/07/22 10:53:09;;;;;;;242.07;135.77;;;23.10;65.50;;;;;;5099642;28;20868;-75
2021/07/22 10:55:45;;;;;;;22.42;15.32;;;23.20;64.70;;;;;;5087960;28;20460;-74
2021/07/22 10:58:29;;;;;;;10.63;6.80;;;23.30;64.90;;;;;;5076199;28;20024;-74
2021/07/22 11:00:56;;;;;;;10.73;5.20;;;23.40;63.10;;;;;;5094791;28;20460;-73
2021/07/22 11:03:38;;;;;;;8.35;4.28;;;23.40;63.50;;;;;;5077354;28;20024;-74
2021/07/22 11:06:11;;;;;;;6.88;3.90;;;23.40;62.70;;;;;;5101131;28;20415;-74
2021/07/22 11:08:38;;;;;;;8.85;3.90;;;23.40;63.50;;;;;;5110188;28;20044;-75
2021/07/22 11:11:09;;;;;;;7.70;4.03;;;23.40;63.40;;;;;;5115038;28;20042;-79
2021/07/22 11:13:34;;;;;;;7.70;3.80;;;23.50;63.20;;;;;;5084046;28;20027;-75
2021/07/22 11:16:03;;;;;;;10.45;3.90;;;23.60;64.10;;;;;;5094985;28;20031;-76
2021/07/22 11:18:44;;;;;;;5.65;3.58;;;23.60;62.60;;;;;;5096818;28;20028;-75
2021/07/22 11:21:11;;;;;;;9.60;3.97;;;23.70;62.80;;;;;;5115015;28;20207;-76
2021/07/22 11:23:37;;;;;;;7.03;3.50;;;23.80;62.50;;;;;;5097284;28;20038;-75
2021/07/22 11:26:03;;;;;;;5.65;3.85;;;23.80;62.10;;;;;;5114994;28;20091;-75
2021/07/22 11:28:29;;;;;;;9.02;3.92;;;23.80;61.40;;;;;;5115514;28;20028;-76
2021/07/22 11:31:03;;;;;;;7.40;3.58;;;23.90;61.30;;;;;;5096518;28;20046;-75
2021/07/22 11:33:40;;;;;;;6.03;3.97;;;24.00;60.00;;;;;;5097006;28;20464;-74
2021/07/22 11:36:07;;;;;;;8.40;3.47;;;24.00;59.60;;;;;;5111524;28;20016;-74
2021/07/22 11:38:35;;;;;;;5.28;3.35;;;24.10;59.60;;;;;;5095327;28;20038;-73
2021/07/22 11:41:01;;;;;;;5.75;3.22;;;24.10;58.20;;;;;;5075961;28;20119;-75
2021/07/22 11:43:42;;;;;;;5.32;3.25;;;24.10;58.20;;;;;;5076317;28;20111;-75
2021/07/22 11:46:12;;;;;;;4.65;3.42;;;24.20;57.30;;;;;;5093737;28;20074;-74
2021/07/22 11:48:39;;;;;;;6.18;3.35;;;24.30;58.40;;;;;;5076338;28;20039;-74
2021/07/22 11:51:10;;;;;;;7.03;3.58;;;24.30;57.50;;;;;;5075592;28;20066;-75
2021/07/22 11:53:37;;;;;;;4.15;3.00;;;24.30;57.80;;;;;;5094502;28;20104;-75
2021/07/22 11:56:14;;;;;;;3.58;2.92;;;24.40;56.80;;;;;;5075307;28;20115;-76
2021/07/22 11:58:50;;;;;;;4.18;2.95;;;24.50;56.30;;;;;;5094931;28;20110;-76
2021/07/22 12:01:16;;;;;;;5.25;3.40;;;24.50;55.60;;;;;;5093179;28;20080;-74
2021/07/22 12:03:49;;;;;;;4.88;3.03;;;24.60;55.80;;;;;;5076122;28;20028;-75
2021/07/22 12:06:25;;;;;;;5.53;4.00;;;24.60;55.50;;;;;;5075867;28;20057;-75
2021/07/22 12:09:00;;;;;;;6.22;3.35;;;24.70;55.90;;;;;;5075612;28;20056;-74
2021/07/22 12:11:25;;;;;;;4.75;3.08;;;24.70;54.70;;;;;;5094442;28;20104;-74
2021/07/22 12:13:52;;;;;;;6.75;2.80;;;24.80;53.40;;;;;;5075753;28;20540;-75
2021/07/22 12:16:24;;;;;;;4.28;3.10;;;24.80;53.60;;;;;;5075394;28;20027;-74
2021/07/22 12:18:54;;;;;;;5.15;2.70;;;24.90;52.70;;;;;;5075762;28;20595;-74
2021/07/22 12:21:29;;;;;;;4.88;3.40;;;24.90;52.60;;;;;;5075236;28;20161;-74
2021/07/22 12:24:14;;;;;;;7.30;3.40;;;24.90;53.80;;;;;;5078230;28;20028;-75
2021/07/22 12:26:40;;;;;;;6.57;3.60;;;25.00;53.50;;;;;;5089439;28;20114;-75
2021/07/22 12:29:06;;;;;;;5.25;3.65;;;25.10;53.80;;;;;;5081444;28;20119;-75
2021/07/22 12:31:40;;;;;;;4.38;3.10;;;25.10;54.00;;;;;;5076464;28;20035;-75
2021/07/22 12:34:07;;;;;;;7.53;3.75;;;25.20;53.40;;;;;;5074911;28;20055;-75
2021/07/22 12:36:34;;;;;;;6.35;3.15;;;25.20;53.00;;;;;;5093684;28;20028;-74
2021/07/22 12:39:20;;;;;;;5.55;3.03;;;25.30;53.20;;;;;;5082170;28;20487;-76
2021/07/22 12:41:48;;;;;;;6.60;3.22;;;25.40;52.50;;;;;;5096878;28;20496;-75
2021/07/22 12:44:40;;;;;;;4.72;3.00;;;25.50;50.50;;;;;;5083672;28;20019;-76
2021/07/22 12:47:28;;;;;;;4.43;3.13;;;25.60;52.10;;;;;;5103727;28;20024;-75